createdAt,value
2022-12-09T06:15:48.674Z,100156.42
2022-12-09T06:16:55.169Z,100162.47
2022-12-09T06:17:59.778Z,100164.89
2022-12-09T06:19:06.774Z,100162.16
2022-12-09T06:20:11.061Z,100160.36
2022-12-09T06:21:16.388Z,100153.50
2022-12-09T06:22:20.819Z,100161.22
2022-12-09T06:23:25.418Z,100160.94
2022-12-09T06:24:30.940Z,100153.25
2022-12-09T06:25:34.385Z,100152.24
2022-12-09T06:26:38.206Z,100154.70
2022-12-09T06:27:42.312Z,100150.20
2022-12-09T06:28:45.662Z,100149.14
2022-12-09T06:29:48.994Z,100147.47
2022-12-09T06:30:51.807Z,100144.03
2022-12-09T06:31:55.599Z,100132.84
2022-12-09T06:32:59.291Z,100138.06
2022-12-09T06:34:03.725Z,100136.06
2022-12-09T06:35:10.428Z,100133.41
2022-12-09T06:36:15.008Z,100131.48
2022-12-09T06:37:18.793Z,100138.18
2022-12-09T06:38:24.352Z,100131.61
2022-12-09T06:39:29.800Z,100139.50
2022-12-09T06:40:33.536Z,100140.27
2022-12-09T06:41:38.846Z,100140.31
2022-12-09T06:42:41.344Z,100143.61
2022-12-09T06:43:44.686Z,100145.94
2022-12-09T06:44:48.411Z,100151.00
2022-12-09T06:45:52.470Z,100162.97
2022-12-09T06:46:56.267Z,100160.91
2022-12-09T06:48:01.107Z,100166.37
2022-12-09T06:49:05.101Z,100162.26
2022-12-09T06:50:14.026Z,100161.80
2022-12-09T06:51:19.707Z,100165.84
2022-12-09T06:52:23.540Z,100151.52
2022-12-09T06:53:26.531Z,100152.98
2022-12-09T06:54:32.843Z,100158.94
2022-12-09T06:55:37.360Z,100157.04
2022-12-09T06:56:41.346Z,100158.54
2022-12-09T06:57:48.049Z,100160.25
2022-12-09T06:58:52.063Z,100163.77
2022-12-09T06:59:55.786Z,100159.44
2022-12-09T07:01:16.620Z,100148.57
2022-12-09T07:02:20.727Z,100150.14
2022-12-09T07:03:23.887Z,100155.29
2022-12-09T07:04:29.635Z,100148.20
2022-12-09T07:05:33.600Z,100151.31
2022-12-09T07:06:57.421Z,100151.31
2022-12-09T07:08:02.039Z,100151.75
2022-12-09T07:09:15.660Z,100140.31
2022-12-09T07:10:20.833Z,100136.55
2022-12-09T07:11:24.798Z,100139.31
2022-12-09T07:12:28.528Z,100142.22
2022-12-09T12:52:57.195Z,99887.86
2022-12-09T12:54:10.805Z,99894.31
2022-12-09T13:07:34.083Z,99910.16
2022-12-09T13:10:24.653Z,99910.37
2022-12-09T13:11:44.768Z,99911.29
2022-12-09T13:12:55.628Z,99906.34
2022-12-09T13:14:05.444Z,99906.41
2022-12-09T13:15:17.981Z,99907.26
2022-12-09T13:17:46.421Z,99905.53
2022-12-09T13:18:50.556Z,99905.83
2022-12-09T13:20:00.579Z,99903.41
2022-12-09T13:21:06.368Z,99917.72
2022-12-09T13:23:54.081Z,99914.61
2022-12-09T13:25:28.885Z,99913.45
2022-12-09T13:26:50.060Z,99909.06
2022-12-09T13:27:59.397Z,99903.28
2022-12-09T13:29:32.289Z,99897.36
2022-12-09T13:30:58.570Z,99902.16
2022-12-09T13:32:04.803Z,99902.55
2022-12-09T13:33:23.061Z,99896.40
2022-12-09T13:34:40.949Z,99892.92
2022-12-09T13:36:09.814Z,99888.89
2022-12-09T13:37:36.617Z,99889.63
2022-12-09T13:38:43.515Z,99897.16
2022-12-09T13:39:58.553Z,99893.22
2022-12-09T13:41:21.553Z,99896.46
2022-12-09T13:42:53.307Z,99897.83
2022-12-09T13:44:09.816Z,99902.84
2022-12-09T13:45:26.164Z,99893.22
2022-12-09T13:46:29.972Z,99892.98
2022-12-09T13:47:37.248Z,99889.30
2022-12-09T13:48:48.240Z,99892.72
2022-12-09T13:51:12.724Z,99882.34
2022-12-09T13:52:20.200Z,99884.97
2022-12-09T13:53:40.000Z,99886.56
2022-12-09T13:54:46.358Z,99887.59
2022-12-09T13:55:56.968Z,99882.23
2022-12-09T13:57:05.038Z,99878.58
2022-12-09T13:58:30.465Z,99880.05
2022-12-09T13:59:46.439Z,99876.87
2022-12-09T14:01:04.728Z,99878.58
